SVMC/MAR METAR and TAF weather

Enter ICAO airport designator
Station Type Date Time Source
SVMC METAR 2020/12/01 21:02 UTC NOAA

SVMC 012102Z AUTO 17002KT NCD 32/24 Q1007


Station Type Date Time Source
SVMC Decoded METAR 2020/12/01 21:02 UTC NOAA

Maracaibo-La Chinita, Venezuela (SVMC) 10-34N 071-44W 65M
Dec 01, 2020 - 04:02 PM EST / 2020.12.01 2102 UTC
Wind: from the S (170 degrees) at 2 MPH (2 KT):0
Temperature: 89 F (32 C)
Heat index: 98.4 F (36.9 C):1
Dew Point: 75 F (24 C)
Relative Humidity: 62%
Pressure (altimeter): 29.74 in. Hg (1007 hPa)
ob: SVMC 012102Z AUTO 17002KT NCD 32/24 Q1007
cycle: 21

Station Type Date Time Source
SVMC TAF 2020/12/01 18:06 UTC NOAA

TAF SVMC 011600Z 0118/0218 13006KT 9999 SCT016 TX34/0119Z TN25/0108Z
BECMG 0118/0122 12006KT 9999 SCT016

Example: see airport list